createdAt,value
2023-03-16T00:01:46.408Z,3.30
2023-03-16T00:04:12.772Z,3.33
2023-03-16T00:06:39.074Z,3.28
2023-03-16T00:09:05.403Z,3.30
2023-03-16T00:11:31.726Z,3.34
2023-03-16T00:13:58.052Z,3.26
2023-03-16T00:16:24.457Z,3.18
2023-03-16T00:18:50.798Z,3.15
2023-03-16T00:21:17.126Z,3.12
2023-03-16T00:23:43.472Z,3.05
2023-03-16T00:26:09.819Z,3.01
2023-03-16T00:28:36.193Z,2.92
2023-03-16T00:31:02.500Z,2.96
2023-03-16T00:33:28.815Z,3.01
2023-03-16T00:35:55.175Z,2.99
2023-03-16T00:38:21.509Z,3.05
2023-03-16T00:40:47.822Z,2.98
2023-03-16T00:43:14.150Z,2.98
2023-03-16T00:45:40.458Z,3.03
2023-03-16T00:48:06.784Z,3.06
2023-03-16T00:50:33.118Z,3.04
2023-03-16T00:52:59.444Z,3.10
2023-03-16T00:55:25.765Z,3.04
2023-03-16T00:57:52.081Z,3.09
2023-03-16T01:00:18.387Z,3.10
2023-03-16T01:02:44.702Z,3.06
2023-03-16T01:05:11.077Z,3.09
2023-03-16T01:07:37.401Z,3.04
2023-03-16T01:10:03.725Z,3.06
2023-03-16T01:12:30.051Z,2.92
2023-03-16T01:14:56.362Z,2.89
2023-03-16T01:17:22.688Z,2.88
2023-03-16T01:19:49.008Z,2.83
2023-03-16T01:22:15.314Z,2.79
2023-03-16T01:24:41.638Z,2.71
2023-03-16T01:27:07.948Z,2.82
2023-03-16T01:29:34.262Z,2.89
2023-03-16T01:32:00.622Z,2.91
2023-03-16T01:34:26.960Z,2.94
2023-03-16T01:36:53.277Z,2.89
2023-03-16T01:39:19.593Z,2.89
2023-03-16T01:41:45.898Z,2.94
2023-03-16T01:44:12.227Z,2.92
2023-03-16T01:46:38.607Z,2.76
2023-03-16T01:49:04.930Z,2.65
2023-03-16T01:51:31.236Z,2.58
2023-03-16T01:53:57.572Z,2.46
2023-03-16T01:56:23.913Z,2.36
2023-03-16T01:58:50.459Z,2.38
2023-03-16T02:01:16.831Z,2.43
2023-03-16T02:03:43.168Z,2.45
2023-03-16T02:06:09.477Z,2.33
2023-03-16T02:08:35.788Z,2.17
2023-03-16T02:11:02.126Z,2.16
2023-03-16T02:13:28.431Z,2.29
2023-03-16T02:15:54.799Z,2.36
2023-03-16T02:18:21.123Z,2.43
2023-03-16T02:20:47.428Z,2.43
2023-03-16T02:23:13.726Z,2.35
2023-03-16T02:25:40.062Z,2.16
2023-03-16T02:28:06.369Z,2.11
2023-03-16T02:30:32.684Z,1.95
2023-03-16T02:32:59.063Z,1.80
2023-03-16T02:35:25.437Z,1.72
2023-03-16T02:37:51.776Z,1.76
2023-03-16T02:40:18.099Z,1.79
2023-03-16T02:42:44.410Z,1.76
2023-03-16T02:45:10.728Z,1.68
2023-03-16T02:47:37.051Z,1.66
2023-03-16T02:50:03.378Z,1.79
2023-03-16T02:52:29.689Z,1.75
2023-03-16T02:54:56.006Z,1.74
2023-03-16T02:57:22.322Z,1.71
2023-03-16T02:59:48.634Z,1.73
2023-03-16T03:02:14.934Z,1.72
2023-03-16T03:04:41.235Z,1.73
2023-03-16T03:07:07.563Z,1.72
2023-03-16T03:09:33.932Z,1.72
2023-03-16T03:12:00.261Z,1.59
2023-03-16T03:14:26.567Z,1.54
2023-03-16T03:16:52.866Z,1.42
2023-03-16T03:19:19.188Z,1.40
2023-03-16T03:21:45.518Z,1.44
2023-03-16T03:24:11.826Z,1.54
2023-03-16T03:26:38.192Z,1.61
2023-03-16T03:29:04.550Z,1.70
2023-03-16T03:31:30.909Z,1.78
2023-03-16T03:33:57.331Z,1.83
2023-03-16T03:36:23.656Z,1.80
2023-03-16T03:38:49.955Z,1.81
2023-03-16T03:41:16.292Z,1.75
2023-03-16T03:43:42.613Z,1.77
2023-03-16T03:46:08.993Z,1.71
2023-03-16T03:48:35.365Z,1.72
2023-03-16T03:51:01.675Z,1.84
2023-03-16T03:53:28.009Z,1.80
2023-03-16T03:55:54.327Z,1.89
2023-03-16T03:58:20.644Z,1.71
2023-03-16T04:00:46.972Z,1.66
2023-03-16T04:03:13.408Z,1.59
2023-03-16T04:05:39.783Z,1.53
2023-03-16T04:08:06.100Z,1.60
2023-03-16T04:10:32.436Z,1.70
2023-03-16T04:12:58.932Z,1.75
2023-03-16T04:15:25.246Z,1.68
2023-03-16T04:17:51.562Z,1.71
2023-03-16T04:20:17.901Z,1.79
2023-03-16T04:22:44.229Z,1.84
2023-03-16T04:25:11.556Z,1.87
2023-03-16T04:27:37.935Z,1.80
2023-03-16T04:30:04.255Z,1.75
2023-03-16T04:32:30.614Z,1.75
2023-03-16T04:34:56.953Z,1.75
2023-03-16T04:37:23.287Z,1.78
2023-03-16T04:39:49.610Z,1.68
2023-03-16T04:42:15.933Z,1.57
2023-03-16T04:44:42.238Z,1.53
2023-03-16T04:47:08.539Z,1.50
2023-03-16T04:49:34.863Z,1.45
2023-03-16T04:52:01.166Z,1.46
2023-03-16T04:54:27.470Z,1.41
2023-03-16T04:56:53.770Z,1.47
2023-03-16T04:59:20.073Z,1.57
2023-03-16T05:01:46.489Z,1.42
2023-03-16T05:04:18.895Z,1.34
2023-03-16T05:06:45.954Z,1.18
2023-03-16T05:09:12.289Z,1.11
2023-03-16T05:11:38.614Z,1.07
2023-03-16T05:14:04.988Z,1.05
2023-03-16T05:16:31.342Z,1.16
2023-03-16T05:18:57.661Z,1.32
2023-03-16T05:21:24.004Z,1.38
2023-03-16T05:23:50.344Z,1.28
2023-03-16T05:26:16.681Z,1.20
2023-03-16T05:28:43.016Z,1.22
2023-03-16T05:31:09.394Z,1.28
2023-03-16T05:33:35.745Z,1.26
2023-03-16T05:36:02.154Z,1.38
2023-03-16T05:38:28.502Z,1.41
2023-03-16T05:40:54.842Z,1.22
2023-03-16T05:43:21.190Z,1.12
2023-03-16T05:45:47.515Z,1.05
2023-03-16T05:48:13.825Z,1.04
2023-03-16T05:50:40.154Z,1.05
2023-03-16T05:53:06.462Z,1.12
2023-03-16T05:55:32.797Z,1.18
2023-03-16T05:57:59.125Z,1.20
2023-03-16T06:00:25.466Z,1.30
2023-03-16T06:02:51.833Z,1.41
2023-03-16T06:05:18.186Z,1.44
2023-03-16T06:07:44.509Z,1.48
2023-03-16T06:10:10.821Z,1.50
2023-03-16T06:12:37.147Z,1.50
2023-03-16T06:15:03.470Z,1.59
2023-03-16T06:17:29.921Z,1.59
2023-03-16T06:19:56.285Z,1.29
2023-03-16T06:22:22.625Z,1.27
2023-03-16T06:24:48.979Z,1.28
2023-03-16T06:27:15.293Z,1.21
2023-03-16T06:29:41.610Z,1.36
2023-03-16T06:32:07.931Z,1.43
2023-03-16T06:34:34.440Z,1.46
2023-03-16T06:37:01.402Z,1.47
2023-03-16T06:39:27.731Z,1.66
2023-03-16T06:41:54.057Z,1.74
2023-03-16T06:44:20.374Z,2.10
2023-03-16T06:46:46.676Z,2.21
2023-03-16T06:49:13.011Z,1.97
2023-03-16T06:51:39.321Z,1.99
2023-03-16T06:54:05.632Z,1.96
2023-03-16T06:56:31.939Z,2.17
2023-03-16T06:58:58.263Z,2.34
2023-03-16T07:01:24.682Z,2.39
2023-03-16T07:03:51.078Z,2.61
2023-03-16T07:06:17.406Z,2.66
2023-03-16T07:08:43.779Z,2.65
2023-03-16T07:11:10.102Z,2.70
2023-03-16T07:13:36.414Z,2.80
2023-03-16T07:16:02.741Z,2.87
2023-03-16T07:18:29.065Z,2.77
2023-03-16T07:20:55.388Z,2.71
2023-03-16T07:23:21.776Z,2.61
2023-03-16T07:25:48.116Z,2.59
2023-03-16T07:28:14.424Z,2.47
2023-03-16T07:30:45.906Z,2.48
2023-03-16T07:33:19.572Z,2.48
2023-03-16T07:35:45.886Z,2.63
2023-03-16T07:38:12.219Z,2.64
2023-03-16T07:40:38.527Z,2.79
2023-03-16T07:43:04.840Z,2.97
2023-03-16T07:45:31.161Z,2.95
2023-03-16T07:47:57.468Z,3.07
2023-03-16T07:50:23.792Z,3.10
2023-03-16T07:52:50.136Z,3.04
2023-03-16T07:55:16.468Z,3.10
2023-03-16T07:57:42.779Z,3.14
2023-03-16T08:00:09.081Z,3.25
2023-03-16T08:02:35.505Z,3.27
2023-03-16T08:05:01.873Z,3.29
2023-03-16T08:07:28.210Z,3.34
2023-03-16T08:09:54.545Z,3.47
2023-03-16T08:12:20.865Z,3.46
2023-03-16T08:14:47.177Z,3.59
2023-03-16T08:17:13.484Z,3.69
2023-03-16T08:19:39.785Z,3.73
2023-03-16T08:22:06.122Z,3.84
2023-03-16T08:24:32.457Z,3.86
2023-03-16T08:26:58.787Z,4.03
2023-03-16T08:29:25.105Z,3.95
2023-03-16T08:31:51.442Z,4.03
2023-03-16T08:34:17.757Z,4.12
2023-03-16T08:36:44.078Z,4.25
2023-03-16T08:39:11.937Z,4.39
2023-03-16T08:41:38.439Z,4.49
2023-03-16T08:44:04.757Z,4.55
2023-03-16T08:46:31.145Z,4.57
2023-03-16T08:48:57.536Z,4.55
2023-03-16T08:51:23.861Z,4.64
2023-03-16T08:53:50.188Z,4.74
2023-03-16T08:56:16.504Z,4.69
2023-03-16T08:58:42.837Z,4.75
2023-03-16T09:01:09.144Z,4.88
2023-03-16T09:03:35.757Z,4.85
2023-03-16T09:06:02.104Z,4.83
2023-03-16T09:08:28.413Z,4.91
2023-03-16T09:10:54.726Z,5.07
2023-03-16T09:13:21.042Z,5.06
2023-03-16T09:15:47.376Z,5.09
2023-03-16T09:18:13.702Z,5.05
2023-03-16T09:20:40.375Z,5.05
2023-03-16T09:23:06.897Z,5.15
2023-03-16T09:25:33.240Z,5.18
2023-03-16T09:27:59.552Z,5.33
2023-03-16T09:30:25.871Z,5.41
2023-03-16T09:32:52.292Z,5.44
2023-03-16T09:35:18.693Z,5.44
2023-03-16T09:38:01.135Z,5.52
2023-03-16T09:40:30.954Z,5.45
2023-03-16T09:42:57.270Z,5.50
2023-03-16T09:45:23.613Z,5.49
2023-03-16T09:47:49.935Z,5.39
2023-03-16T09:50:16.312Z,5.52
2023-03-16T09:52:42.667Z,5.61
2023-03-16T09:55:08.997Z,5.67
2023-03-16T09:57:35.324Z,5.68
2023-03-16T10:00:01.633Z,5.73
2023-03-16T10:02:27.938Z,5.75
2023-03-16T10:04:54.241Z,5.72
2023-03-16T10:07:20.596Z,5.86
2023-03-16T10:09:46.916Z,5.93
2023-03-16T10:12:13.255Z,6.05
2023-03-16T10:14:39.626Z,5.99
2023-03-16T10:17:05.963Z,6.03
2023-03-16T10:19:32.271Z,6.13
2023-03-16T10:21:58.593Z,6.14
2023-03-16T10:24:25.069Z,6.10
2023-03-16T10:26:51.413Z,6.13
2023-03-16T10:29:17.720Z,6.15
2023-03-16T10:31:44.059Z,6.32
2023-03-16T10:34:10.446Z,6.39
2023-03-16T10:36:36.806Z,6.43
2023-03-16T10:39:03.188Z,6.37
2023-03-16T10:41:29.504Z,6.41
2023-03-16T10:43:55.817Z,6.43
2023-03-16T10:46:22.195Z,6.49
2023-03-16T10:48:48.601Z,6.58
2023-03-16T10:51:14.911Z,6.60
2023-03-16T10:53:41.210Z,6.66
2023-03-16T10:56:07.526Z,6.69
2023-03-16T10:58:33.868Z,6.79
2023-03-16T11:01:00.247Z,6.94
2023-03-16T11:03:26.696Z,7.04
2023-03-16T11:05:53.019Z,7.00
2023-03-16T11:08:19.326Z,7.08
2023-03-16T11:10:54.968Z,7.04
2023-03-16T11:13:22.448Z,6.85
2023-03-16T11:15:48.793Z,6.94
2023-03-16T11:18:15.098Z,7.09
2023-03-16T11:20:41.422Z,7.26
2023-03-16T11:23:07.754Z,7.25
2023-03-16T11:25:34.055Z,7.28
2023-03-16T11:28:00.381Z,7.48
2023-03-16T11:30:26.722Z,7.53
2023-03-16T11:32:53.191Z,7.54
2023-03-16T11:35:19.567Z,7.55
2023-03-16T11:37:45.890Z,7.60
2023-03-16T11:40:12.214Z,7.70
2023-03-16T11:42:38.525Z,7.88
2023-03-16T11:45:04.828Z,7.89
2023-03-16T11:47:31.150Z,8.01
2023-03-16T11:49:57.485Z,7.96
2023-03-16T11:52:23.808Z,8.05
2023-03-16T11:54:50.216Z,8.04
2023-03-16T11:57:16.518Z,8.11
2023-03-16T11:59:48.984Z,8.19
2023-03-16T12:02:18.493Z,8.32
2023-03-16T12:04:44.869Z,8.52
2023-03-16T12:07:11.183Z,8.56
2023-03-16T12:09:37.499Z,8.55
2023-03-16T12:12:03.829Z,8.70
2023-03-16T12:14:30.135Z,8.71
2023-03-16T12:16:56.465Z,8.80
2023-03-16T12:19:22.805Z,8.78
2023-03-16T12:21:49.156Z,8.72
2023-03-16T12:24:15.499Z,8.80
2023-03-16T12:26:41.823Z,8.84
2023-03-16T12:29:08.150Z,8.92
2023-03-16T12:31:34.553Z,9.02
2023-03-16T12:34:00.880Z,9.04
2023-03-16T12:36:27.192Z,9.18
2023-03-16T12:38:53.560Z,9.09
2023-03-16T12:41:19.905Z,9.10
2023-03-16T12:43:46.271Z,9.20
2023-03-16T12:46:12.664Z,9.30
2023-03-16T12:48:39.019Z,9.37
2023-03-16T12:51:05.331Z,9.46
2023-03-16T12:53:31.636Z,9.60
2023-03-16T12:55:58.009Z,9.63
2023-03-16T12:58:24.334Z,9.73
2023-03-16T13:00:50.645Z,9.79
2023-03-16T13:03:17.112Z,9.84
2023-03-16T13:05:43.463Z,9.97
2023-03-16T13:08:09.865Z,9.88
2023-03-16T13:10:36.197Z,9.99
2023-03-16T13:13:02.524Z,10.16
2023-03-16T13:15:28.852Z,10.11
2023-03-16T13:17:55.185Z,10.20
2023-03-16T13:20:30.395Z,10.26
2023-03-16T13:22:57.306Z,10.21
2023-03-16T13:25:23.619Z,10.24
2023-03-16T13:27:49.913Z,10.30
2023-03-16T13:30:16.259Z,10.40
2023-03-16T13:32:42.614Z,10.52
2023-03-16T13:35:08.963Z,10.67
2023-03-16T13:37:35.289Z,10.81
2023-03-16T13:40:01.615Z,10.94
2023-03-16T13:42:27.924Z,11.04
2023-03-16T13:44:54.252Z,11.10
2023-03-16T13:47:20.590Z,11.28
2023-03-16T13:49:46.915Z,11.24
2023-03-16T13:52:13.218Z,11.31
2023-03-16T13:54:39.532Z,11.41
2023-03-16T13:57:05.833Z,11.51
2023-03-16T13:59:32.179Z,11.66
2023-03-16T14:01:58.488Z,11.79
2023-03-16T14:04:24.792Z,11.80
2023-03-16T14:06:51.118Z,11.93
2023-03-16T14:09:17.440Z,12.03
2023-03-16T14:11:43.764Z,12.01
2023-03-16T14:14:10.088Z,11.91
2023-03-16T14:16:36.418Z,12.00
2023-03-16T14:19:02.757Z,11.97
2023-03-16T14:21:29.127Z,12.12
2023-03-16T14:23:55.481Z,12.06
2023-03-16T14:26:24.625Z,12.04
2023-03-16T14:28:50.957Z,12.04
2023-03-16T14:31:17.298Z,12.02
2023-03-16T14:33:43.621Z,12.06
2023-03-16T14:36:09.993Z,12.25
2023-03-16T14:38:36.333Z,12.38
2023-03-16T14:41:02.635Z,12.53
2023-03-16T14:43:28.938Z,12.46
2023-03-16T14:45:55.296Z,12.44
2023-03-16T14:48:21.644Z,12.50
2023-03-16T14:50:48.018Z,12.66
2023-03-16T14:53:14.332Z,12.76
2023-03-16T14:55:40.653Z,12.74
2023-03-16T14:58:06.972Z,12.57
2023-03-16T15:00:42.728Z,12.68
2023-03-16T15:03:16.665Z,12.74
2023-03-16T15:05:42.994Z,12.77
2023-03-16T15:08:09.416Z,12.84
2023-03-16T15:10:35.782Z,13.01
2023-03-16T15:13:02.099Z,13.23
2023-03-16T15:15:28.443Z,13.61
2023-03-16T15:17:54.764Z,14.11
2023-03-16T15:20:22.647Z,14.40
2023-03-16T15:22:50.335Z,14.28
2023-03-16T15:25:16.700Z,14.11
2023-03-16T15:27:43.031Z,14.04
2023-03-16T15:30:09.347Z,13.77
2023-03-16T15:32:35.682Z,13.70
2023-03-16T15:35:02.031Z,13.63
2023-03-16T15:37:28.341Z,13.58
2023-03-16T15:39:54.679Z,13.67
2023-03-16T15:42:21.001Z,13.50
2023-03-16T15:44:47.317Z,13.31
2023-03-16T15:47:13.622Z,13.18
2023-03-16T15:49:47.161Z,13.46
2023-03-16T15:52:14.290Z,13.53
2023-03-16T15:54:40.594Z,13.82
2023-03-16T15:57:06.907Z,13.92
2023-03-16T15:59:33.231Z,13.74
2023-03-16T16:01:59.629Z,13.73
2023-03-16T16:04:26.073Z,13.45
2023-03-16T16:06:52.448Z,13.22
2023-03-16T16:09:18.774Z,13.12
2023-03-16T16:11:45.099Z,13.06
2023-03-16T16:14:11.448Z,12.97
2023-03-16T16:16:37.784Z,13.05
2023-03-16T16:19:04.147Z,13.06
2023-03-16T16:21:30.477Z,13.04
2023-03-16T16:23:56.811Z,13.04
2023-03-16T16:26:23.218Z,12.89
2023-03-16T16:28:49.528Z,12.89
2023-03-16T16:31:15.897Z,12.88
2023-03-16T16:33:42.278Z,12.86
2023-03-16T16:36:08.650Z,12.75
2023-03-16T16:38:34.968Z,12.54
2023-03-16T16:41:01.268Z,12.55
2023-03-16T16:43:28.530Z,12.69
2023-03-16T16:45:54.928Z,12.63
2023-03-16T16:48:21.249Z,12.67
2023-03-16T16:50:47.573Z,12.66
2023-03-16T16:53:13.901Z,12.61
2023-03-16T16:55:42.269Z,12.35
2023-03-16T16:58:18.530Z,12.18
2023-03-16T17:00:50.007Z,11.98
2023-03-16T17:03:16.369Z,11.96
2023-03-16T17:05:42.705Z,11.83
2023-03-16T17:08:09.034Z,11.85
2023-03-16T17:10:35.360Z,11.66
2023-03-16T17:13:01.671Z,11.66
2023-03-16T17:15:28.325Z,11.65
2023-03-16T17:17:54.899Z,11.58
2023-03-16T17:20:21.222Z,11.66
2023-03-16T17:22:47.532Z,11.50
2023-03-16T17:25:13.876Z,11.37
2023-03-16T17:27:40.190Z,11.35
2023-03-16T17:30:06.490Z,11.35
2023-03-16T17:32:32.818Z,11.27
2023-03-16T17:34:59.181Z,11.15
2023-03-16T17:37:25.513Z,10.98
2023-03-16T17:39:51.933Z,10.90
2023-03-16T17:42:18.259Z,10.73
2023-03-16T17:44:44.590Z,10.62
2023-03-16T17:47:10.911Z,10.53
2023-03-16T17:49:37.246Z,10.39
2023-03-16T17:52:03.581Z,10.10
2023-03-16T17:54:29.907Z,9.89
2023-03-16T17:56:56.255Z,9.77
2023-03-16T17:59:22.582Z,9.60
2023-03-16T18:01:48.995Z,9.43
2023-03-16T18:04:15.337Z,9.29
2023-03-16T18:06:41.660Z,9.19
2023-03-16T18:09:07.977Z,9.04
2023-03-16T18:11:34.315Z,8.95
2023-03-16T18:14:00.646Z,8.75
2023-03-16T18:16:27.041Z,8.62
2023-03-16T18:18:53.417Z,8.47
2023-03-16T18:21:19.741Z,8.38
2023-03-16T18:23:46.064Z,8.44
2023-03-16T18:26:12.375Z,8.44
2023-03-16T18:28:39.771Z,8.40
2023-03-16T18:31:06.131Z,8.35
2023-03-16T18:33:32.489Z,8.13
2023-03-16T18:35:58.841Z,8.00
2023-03-16T18:38:25.165Z,7.88
2023-03-16T18:40:51.483Z,7.79
2023-03-16T18:43:17.803Z,7.73
2023-03-16T18:45:44.111Z,7.52
2023-03-16T18:48:10.447Z,7.45
2023-03-16T18:50:36.755Z,7.35
2023-03-16T18:53:03.080Z,7.21
2023-03-16T18:55:29.645Z,7.14
2023-03-16T18:57:56.076Z,7.14
2023-03-16T19:00:22.388Z,7.06
2023-03-16T19:02:48.696Z,6.91
2023-03-16T19:05:15.016Z,6.87
2023-03-16T19:07:41.313Z,6.82
2023-03-16T19:10:07.618Z,6.74
2023-03-16T19:12:33.926Z,6.75
2023-03-16T19:15:00.225Z,6.74
2023-03-16T19:17:26.539Z,6.66
2023-03-16T19:19:52.852Z,6.55
2023-03-16T19:22:19.182Z,6.53
2023-03-16T19:24:45.483Z,6.46
2023-03-16T19:27:11.787Z,6.48
2023-03-16T19:29:38.113Z,6.66
2023-03-16T19:32:04.431Z,6.67
2023-03-16T19:34:30.798Z,6.55
2023-03-16T19:36:57.149Z,6.69
2023-03-16T19:39:23.476Z,6.60
2023-03-16T19:41:49.827Z,6.52
2023-03-16T19:44:16.134Z,6.44
2023-03-16T19:46:42.445Z,6.28
2023-03-16T19:49:08.744Z,6.27
2023-03-16T19:51:35.048Z,6.23
2023-03-16T19:54:01.608Z,6.15
2023-03-16T19:56:27.954Z,6.06
2023-03-16T19:58:54.263Z,6.13
2023-03-16T20:01:20.622Z,6.10
2023-03-16T20:03:46.950Z,6.02
2023-03-16T20:06:13.398Z,5.96
2023-03-16T20:08:39.760Z,6.02
2023-03-16T20:11:06.079Z,5.89
2023-03-16T20:13:32.379Z,5.88
2023-03-16T20:15:58.709Z,5.72
2023-03-16T20:18:25.051Z,5.69
2023-03-16T20:20:51.370Z,5.80
2023-03-16T20:23:17.682Z,5.73
2023-03-16T20:25:44.011Z,5.58
2023-03-16T20:28:10.332Z,5.61
2023-03-16T20:30:36.661Z,5.60
2023-03-16T20:33:03.092Z,5.53
2023-03-16T20:35:29.586Z,5.50
2023-03-16T20:37:56.034Z,5.57
2023-03-16T20:40:22.334Z,5.63
2023-03-16T20:42:48.684Z,5.57
2023-03-16T20:45:15.000Z,5.48
2023-03-16T20:47:41.313Z,5.39
2023-03-16T20:50:07.621Z,5.39
2023-03-16T20:52:33.928Z,5.44
2023-03-16T20:55:00.246Z,5.39
2023-03-16T20:57:26.581Z,5.38
2023-03-16T20:59:52.889Z,5.23
2023-03-16T21:02:19.204Z,5.22
2023-03-16T21:04:45.572Z,5.24
2023-03-16T21:07:11.939Z,5.24
2023-03-16T21:09:38.239Z,5.29
2023-03-16T21:12:04.558Z,5.38
2023-03-16T21:14:30.894Z,5.49
2023-03-16T21:16:57.200Z,5.62
2023-03-16T21:19:23.537Z,5.64
2023-03-16T21:21:49.857Z,5.54
2023-03-16T21:24:16.197Z,5.39
2023-03-16T21:26:42.618Z,5.27
2023-03-16T21:29:08.926Z,5.24
2023-03-16T21:31:35.422Z,5.22
2023-03-16T21:34:01.820Z,5.20
2023-03-16T21:36:28.165Z,5.22
2023-03-16T21:38:54.500Z,5.18
2023-03-16T21:41:20.812Z,5.22
2023-03-16T21:43:47.135Z,5.22
2023-03-16T21:46:13.502Z,5.28
2023-03-16T21:48:39.845Z,5.20
2023-03-16T21:51:06.150Z,5.18
2023-03-16T21:53:32.480Z,5.23
2023-03-16T21:55:58.802Z,5.26
2023-03-16T21:58:25.121Z,5.17
2023-03-16T22:00:51.428Z,5.21
2023-03-16T22:03:17.773Z,5.36
2023-03-16T22:05:44.176Z,5.42
2023-03-16T22:08:10.479Z,5.42
2023-03-16T22:10:36.802Z,5.45
2023-03-16T22:13:03.115Z,5.28
2023-03-16T22:15:29.609Z,5.22
2023-03-16T22:17:56.018Z,5.18
2023-03-16T22:20:22.314Z,5.17
2023-03-16T22:22:48.618Z,5.03
2023-03-16T22:25:14.933Z,5.05
2023-03-16T22:27:41.289Z,5.01
2023-03-16T22:30:07.618Z,5.00
2023-03-16T22:32:33.944Z,4.95
2023-03-16T22:35:00.304Z,4.98
2023-03-16T22:37:26.642Z,5.01
2023-03-16T22:39:53.004Z,5.03
2023-03-16T22:42:19.329Z,5.07
2023-03-16T22:44:45.638Z,5.02
2023-03-16T22:47:11.950Z,4.99
2023-03-16T22:49:38.249Z,5.04
2023-03-16T22:52:04.552Z,5.00
2023-03-16T22:54:30.909Z,4.88
2023-03-16T22:56:57.215Z,4.89
2023-03-16T22:59:23.545Z,4.83
2023-03-16T23:01:49.886Z,4.80
2023-03-16T23:04:16.272Z,4.87
2023-03-16T23:06:42.654Z,4.87
2023-03-16T23:09:08.971Z,4.82
2023-03-16T23:11:35.279Z,4.86
2023-03-16T23:14:01.587Z,4.85
2023-03-16T23:16:27.983Z,4.85
2023-03-16T23:18:54.311Z,4.78
2023-03-16T23:21:20.640Z,4.78
2023-03-16T23:23:57.161Z,4.87
2023-03-16T23:26:29.223Z,4.79
2023-03-16T23:28:55.542Z,4.68
2023-03-16T23:31:21.884Z,4.59
2023-03-16T23:33:48.197Z,4.56
2023-03-16T23:36:14.544Z,4.64
2023-03-16T23:38:40.929Z,4.62
2023-03-16T23:41:07.248Z,4.66
2023-03-16T23:43:33.558Z,4.77
2023-03-16T23:45:59.901Z,4.87
2023-03-16T23:48:26.310Z,4.79
2023-03-16T23:50:52.619Z,4.73
2023-03-16T23:53:18.959Z,4.80
2023-03-16T23:55:45.278Z,4.76
2023-03-16T23:58:11.593Z,4.80
